Time;durP1;ratioP1;P1;durP2;ratioP2;P2;SDS_P1;SDS_P2;PMS_P1;PMS_P2;Temp;Humidity;BMP_temperature;BMP_pressure;BME280_temperature;BME280_humidity;BME280_pressure;Samples;Min_cycle;Max_cycle;Signal;HPM_P1;HPM_P2
2023/12/28 00:00:51;;;;;;;2.65;0.85;;;;;;;;;;5240838;28;20029;-77
2023/12/28 00:03:23;;;;;;;1.80;0.50;;;;;;;;;;5239931;28;20031;-77
2023/12/28 00:05:54;;;;;;;1.92;0.60;;;;;;;;;;5241166;28;20021;-77
2023/12/28 00:08:25;;;;;;;1.77;0.40;;;;;;;;;;5240971;28;20398;-77
2023/12/28 00:10:56;;;;;;;1.27;0.50;;;;;;;;;;5240068;28;20037;-77
2023/12/28 00:13:27;;;;;;;1.05;0.50;;;;;;;;;;5240611;28;20026;-77
2023/12/28 00:15:59;;;;;;;1.20;0.40;;;;;;;;;;5240792;28;20373;-77
2023/12/28 00:18:30;;;;;;;1.45;0.60;;;;;;;;;;5239964;28;20100;-77
2023/12/28 00:21:01;;;;;;;3.17;0.50;;;;;;;;;;5240752;28;20021;-77
2023/12/28 00:23:32;;;;;;;1.45;0.50;;;;;;;;;;5240731;28;20033;-76
2023/12/28 00:26:03;;;;;;;1.85;0.50;;;;;;;;;;5239767;28;20112;-76
2023/12/28 00:28:35;;;;;;;1.40;0.57;;;;;;;;;;5240459;28;20056;-76
2023/12/28 00:31:06;;;;;;;1.60;0.40;;;;;;;;;;5240070;28;20025;-76
2023/12/28 00:33:37;;;;;;;2.30;0.50;;;;;;;;;;5240045;28;20483;-76
2023/12/28 00:36:08;;;;;;;1.73;0.40;;;;;;;;;;5240440;28;20380;-77
2023/12/28 00:38:39;;;;;;;1.63;0.50;;;;;;;;;;5239542;28;20108;-77
2023/12/28 00:41:10;;;;;;;1.42;0.50;;;;;;;;;;5240254;28;20044;-77
2023/12/28 00:43:42;;;;;;;1.80;0.50;;;;;;;;;;5240145;28;20148;-76
2023/12/28 00:46:13;;;;;;;1.40;0.60;;;;;;;;;;5239586;28;20033;-77
2023/12/28 00:48:44;;;;;;;1.17;0.55;;;;;;;;;;5240023;28;20074;-76
2023/12/28 00:51:15;;;;;;;1.42;0.64;;;;;;;;;;5239922;28;20021;-77
2023/12/28 00:53:46;;;;;;;1.67;0.55;;;;;;;;;;5239198;28;20013;-77
2023/12/28 00:56:17;;;;;;;1.30;0.60;;;;;;;;;;5240264;28;20021;-76
2023/12/28 00:58:49;;;;;;;5.70;0.60;;;;;;;;;;5240206;28;20032;-76
2023/12/28 01:01:20;;;;;;;2.00;0.63;;;;;;;;;;5239306;28;20032;-77
2023/12/28 01:03:51;;;;;;;1.63;0.60;;;;;;;;;;5239946;28;20025;-77
2023/12/28 01:06:22;;;;;;;1.98;0.70;;;;;;;;;;5238555;28;20033;-77
2023/12/28 01:08:53;;;;;;;1.65;0.50;;;;;;;;;;5240595;28;20022;-76
2023/12/28 01:11:25;;;;;;;1.70;0.50;;;;;;;;;;5239899;28;20017;-76
2023/12/28 01:13:57;;;;;;;1.90;0.70;;;;;;;;;;5245727;28;20021;-77
2023/12/28 01:16:29;;;;;;;1.33;0.50;;;;;;;;;;5246703;28;20112;-76
2023/12/28 01:19:00;;;;;;;4.22;0.75;;;;;;;;;;5246855;28;20088;-77
2023/12/28 01:21:31;;;;;;;2.17;0.60;;;;;;;;;;5246146;28;20108;-77
2023/12/28 01:24:02;;;;;;;3.10;0.60;;;;;;;;;;5246775;28;20038;-77
2023/12/28 01:26:34;;;;;;;1.77;0.50;;;;;;;;;;5246583;28;20400;-77
2023/12/28 01:29:05;;;;;;;1.98;0.60;;;;;;;;;;5245574;28;20045;-76
2023/12/28 01:31:38;;;;;;;1.50;0.55;;;;;;;;;;5246856;28;20021;-76
2023/12/28 01:34:10;;;;;;;1.45;0.50;;;;;;;;;;5246833;28;20010;-77
2023/12/28 01:36:44;;;;;;;1.77;0.60;;;;;;;;;;5244232;28;20144;-76
2023/12/28 01:39:18;;;;;;;2.30;0.60;;;;;;;;;;5246706;28;20022;-76
2023/12/28 01:41:49;;;;;;;1.23;0.52;;;;;;;;;;5245898;28;20049;-77
2023/12/28 01:44:20;;;;;;;1.92;0.50;;;;;;;;;;5246597;28;20126;-77
2023/12/28 01:46:52;;;;;;;1.23;0.40;;;;;;;;;;5246922;28;20068;-76
2023/12/28 01:49:23;;;;;;;2.70;0.60;;;;;;;;;;5245469;28;20021;-76
2023/12/28 01:51:55;;;;;;;1.95;0.88;;;;;;;;;;5246659;28;20022;-76
2023/12/28 01:54:26;;;;;;;3.28;0.70;;;;;;;;;;5246200;28;20022;-76
2023/12/28 01:56:59;;;;;;;2.67;0.50;;;;;;;;;;5245657;28;20108;-76
2023/12/28 01:59:31;;;;;;;2.17;0.60;;;;;;;;;;5246475;28;20093;-76
2023/12/28 02:02:02;;;;;;;2.95;0.50;;;;;;;;;;5246066;28;20124;-77
2023/12/28 02:04:34;;;;;;;1.52;0.57;;;;;;;;;;5245442;28;20009;-76
2023/12/28 02:07:05;;;;;;;2.67;0.50;;;;;;;;;;5246184;28;20136;-77
2023/12/28 02:09:36;;;;;;;3.58;0.73;;;;;;;;;;5246147;28;20106;-77
2023/12/28 02:12:07;;;;;;;2.53;0.80;;;;;;;;;;5245936;28;20021;-77
2023/12/28 02:14:38;;;;;;;2.03;0.60;;;;;;;;;;5246231;28;20025;-76
2023/12/28 02:17:12;;;;;;;3.42;0.70;;;;;;;;;;5245344;28;20112;-77
2023/12/28 02:19:47;;;;;;;3.13;0.60;;;;;;;;;;5246414;28;20376;-76
2023/12/28 02:22:18;;;;;;;4.60;0.60;;;;;;;;;;5246212;28;20038;-76
2023/12/28 02:25:00;;;;;;;2.72;0.50;;;;;;;;;;5241965;28;20590;-76
2023/12/28 02:27:31;;;;;;;2.47;0.65;;;;;;;;;;5242556;28;20033;-76
2023/12/28 02:30:03;;;;;;;3.67;0.65;;;;;;;;;;5242532;28;20511;-76
2023/12/28 02:32:36;;;;;;;3.83;0.50;;;;;;;;;;5241952;28;20523;-77
2023/12/28 02:35:14;;;;;;;2.22;0.60;;;;;;;;;;5242956;28;20025;-76
2023/12/28 02:37:47;;;;;;;4.00;0.85;;;;;;;;;;5242126;28;20025;-76
2023/12/28 02:40:19;;;;;;;1.73;0.45;;;;;;;;;;5242283;28;20026;-76
2023/12/28 02:42:50;;;;;;;2.22;0.50;;;;;;;;;;5242461;28;20021;-76
2023/12/28 02:45:21;;;;;;;1.52;0.40;;;;;;;;;;5241279;28;20071;-77
2023/12/28 02:47:53;;;;;;;2.83;0.60;;;;;;;;;;5242454;28;20112;-77
2023/12/28 02:50:24;;;;;;;4.95;0.60;;;;;;;;;;5242074;28;20017;-77
2023/12/28 02:52:55;;;;;;;3.08;0.45;;;;;;;;;;5241871;28;20068;-77
2023/12/28 02:55:26;;;;;;;3.70;0.82;;;;;;;;;;5242124;28;20342;-78
2023/12/28 02:58:01;;;;;;;2.90;0.50;;;;;;;;;;5242499;28;20028;-78
2023/12/28 03:00:32;;;;;;;3.10;0.40;;;;;;;;;;5241386;28;20018;-78
2023/12/28 03:03:03;;;;;;;3.08;0.50;;;;;;;;;;5242251;28;20014;-78
2023/12/28 03:05:34;;;;;;;2.67;0.43;;;;;;;;;;5242331;28;20025;-78
2023/12/28 03:08:05;;;;;;;2.08;0.40;;;;;;;;;;5241389;28;20037;-78
2023/12/28 03:10:37;;;;;;;3.70;0.50;;;;;;;;;;5242253;28;20025;-78
2023/12/28 03:13:08;;;;;;;2.17;0.50;;;;;;;;;;5241173;28;20021;-78
2023/12/28 03:15:39;;;;;;;3.08;0.47;;;;;;;;;;5242395;28;20048;-77
2023/12/28 03:18:10;;;;;;;2.13;0.50;;;;;;;;;;5242256;28;20476;-77
2023/12/28 03:20:41;;;;;;;3.10;0.50;;;;;;;;;;5241158;28;20025;-77
2023/12/28 03:23:12;;;;;;;3.63;0.85;;;;;;;;;;5241888;28;20026;-78
2023/12/28 03:25:44;;;;;;;1.67;0.40;;;;;;;;;;5241184;28;20063;-77
2023/12/28 03:28:15;;;;;;;5.22;0.70;;;;;;;;;;5240759;28;20049;-77
2023/12/28 03:30:46;;;;;;;3.28;0.45;;;;;;;;;;5241595;28;20074;-77
2023/12/28 03:33:17;;;;;;;1.70;0.50;;;;;;;;;;5241276;28;20045;-77
2023/12/28 03:35:48;;;;;;;2.85;0.50;;;;;;;;;;5240088;28;20499;-77
2023/12/28 03:38:20;;;;;;;4.00;0.45;;;;;;;;;;5241176;28;20064;-77
2023/12/28 03:40:51;;;;;;;3.80;0.50;;;;;;;;;;5241983;28;20021;-77
2023/12/28 03:43:22;;;;;;;2.80;0.52;;;;;;;;;;5240507;28;20017;-77
2023/12/28 03:45:54;;;;;;;3.33;0.40;;;;;;;;;;5241830;28;20044;-77
2023/12/28 03:48:25;;;;;;;3.58;0.40;;;;;;;;;;5240363;28;20029;-76
2023/12/28 03:50:56;;;;;;;2.70;0.45;;;;;;;;;;5241310;28;20020;-76
2023/12/28 03:53:28;;;;;;;2.72;0.40;;;;;;;;;;5240986;28;20024;-76
2023/12/28 03:55:59;;;;;;;2.30;0.40;;;;;;;;;;5240488;28;20384;-77
2023/12/28 03:58:30;;;;;;;4.78;0.50;;;;;;;;;;5240932;28;20029;-76
2023/12/28 04:01:01;;;;;;;3.30;0.60;;;;;;;;;;5240886;28;20477;-77
2023/12/28 04:03:32;;;;;;;2.75;0.40;;;;;;;;;;5240098;28;20017;-76
2023/12/28 04:06:04;;;;;;;5.32;0.50;;;;;;;;;;5241105;28;20025;-76
2023/12/28 04:08:35;;;;;;;2.58;0.40;;;;;;;;;;5241148;28;20047;-77
2023/12/28 04:11:06;;;;;;;5.18;0.50;;;;;;;;;;5241273;28;20017;-77
2023/12/28 04:13:39;;;;;;;4.07;0.80;;;;;;;;;;5243200;28;20032;-77
2023/12/28 04:16:13;;;;;;;4.50;0.65;;;;;;;;;;5242257;28;20022;-77
2023/12/28 04:18:45;;;;;;;3.80;0.50;;;;;;;;;;5242976;28;20045;-76
2023/12/28 04:21:16;;;;;;;2.85;0.40;;;;;;;;;;5242544;28;20111;-76
2023/12/28 04:23:47;;;;;;;3.28;0.60;;;;;;;;;;5242141;28;20104;-77
2023/12/28 04:26:21;;;;;;;3.85;0.50;;;;;;;;;;5241347;28;20041;-77
2023/12/28 04:28:52;;;;;;;6.15;0.70;;;;;;;;;;5241912;28;20042;-76
2023/12/28 04:31:24;;;;;;;6.28;0.80;;;;;;;;;;5240869;28;20032;-77
2023/12/28 04:33:55;;;;;;;6.45;2.05;;;;;;;;;;5240907;28;20071;-77
2023/12/28 04:36:26;;;;;;;5.03;0.52;;;;;;;;;;5241762;28;20457;-77
2023/12/28 04:38:57;;;;;;;6.20;0.70;;;;;;;;;;5241139;28;20095;-78
2023/12/28 04:41:29;;;;;;;4.85;0.70;;;;;;;;;;5241808;28;20033;-77
2023/12/28 04:44:00;;;;;;;7.60;0.88;;;;;;;;;;5240733;28;20354;-77
2023/12/28 04:46:31;;;;;;;3.38;0.40;;;;;;;;;;5239195;28;20033;-77
2023/12/28 04:49:02;;;;;;;3.42;0.68;;;;;;;;;;5239526;28;20033;-77
2023/12/28 04:51:33;;;;;;;3.63;0.50;;;;;;;;;;5239221;28;20024;-77
2023/12/28 04:54:04;;;;;;;5.60;0.75;;;;;;;;;;5240324;28;20024;-79
2023/12/28 04:56:35;;;;;;;6.68;0.55;;;;;;;;;;5240258;28;20018;-76
2023/12/28 04:59:07;;;;;;;3.67;0.73;;;;;;;;;;5239157;28;20009;-76
2023/12/28 05:01:41;;;;;;;8.48;0.95;;;;;;;;;;5239836;28;20018;-77
2023/12/28 05:04:14;;;;;;;5.32;0.60;;;;;;;;;;5240011;28;20029;-77
2023/12/28 05:06:45;;;;;;;4.25;0.52;;;;;;;;;;5239206;28;20419;-76
2023/12/28 05:09:16;;;;;;;6.13;0.88;;;;;;;;;;5240041;28;20076;-77
2023/12/28 05:11:48;;;;;;;4.10;0.50;;;;;;;;;;5239885;28;20030;-77
2023/12/28 05:14:19;;;;;;;3.55;0.60;;;;;;;;;;5239195;28;20033;-77
2023/12/28 05:16:50;;;;;;;6.90;0.60;;;;;;;;;;5240044;28;20021;-76
2023/12/28 05:19:21;;;;;;;4.07;0.40;;;;;;;;;;5239747;28;20032;-77
2023/12/28 05:21:52;;;;;;;3.55;0.50;;;;;;;;;;5239421;28;20013;-77
2023/12/28 05:24:23;;;;;;;4.10;0.50;;;;;;;;;;5239611;28;20472;-76
2023/12/28 05:26:55;;;;;;;4.57;0.77;;;;;;;;;;5239087;28;20038;-77
2023/12/28 05:29:26;;;;;;;5.65;0.60;;;;;;;;;;5239347;28;20497;-77
2023/12/28 05:31:57;;;;;;;5.90;0.60;;;;;;;;;;5239874;28;20021;-78
2023/12/28 05:34:28;;;;;;;6.40;1.15;;;;;;;;;;5239066;28;20025;-76
2023/12/28 05:36:59;;;;;;;6.68;0.85;;;;;;;;;;5239812;28;20025;-77
2023/12/28 05:39:30;;;;;;;7.32;0.57;;;;;;;;;;5239843;28;20108;-77
2023/12/28 05:42:02;;;;;;;6.08;0.80;;;;;;;;;;5238952;28;20542;-78
2023/12/28 05:44:33;;;;;;;5.65;0.60;;;;;;;;;;5239559;28;20532;-77
2023/12/28 05:47:04;;;;;;;5.20;0.80;;;;;;;;;;5239246;28;20056;-76
2023/12/28 05:49:37;;;;;;;4.68;0.73;;;;;;;;;;5238739;28;20014;-77
2023/12/28 05:52:08;;;;;;;6.70;0.75;;;;;;;;;;5239698;28;20033;-76
2023/12/28 05:54:39;;;;;;;6.38;0.50;;;;;;;;;;5239414;28;20367;-76
2023/12/28 05:57:10;;;;;;;6.60;0.60;;;;;;;;;;5239089;28;20602;-77
2023/12/28 05:59:42;;;;;;;5.00;0.47;;;;;;;;;;5242258;28;20424;-77
2023/12/28 06:02:13;;;;;;;4.38;0.70;;;;;;;;;;5242912;28;20032;-77
2023/12/28 06:04:44;;;;;;;7.07;0.70;;;;;;;;;;5243562;28;20049;-77
2023/12/28 06:07:15;;;;;;;8.98;0.65;;;;;;;;;;5243476;28;20037;-77
2023/12/28 06:09:46;;;;;;;5.97;0.90;;;;;;;;;;5242547;28;20112;-77
2023/12/28 06:12:18;;;;;;;6.95;0.98;;;;;;;;;;5243101;28;20399;-77
2023/12/28 06:14:49;;;;;;;6.72;0.63;;;;;;;;;;5243026;28;20018;-78
2023/12/28 06:17:20;;;;;;;6.43;0.90;;;;;;;;;;5242344;28;20033;-78
2023/12/28 06:19:51;;;;;;;5.18;0.63;;;;;;;;;;5243311;28;20053;-77
2023/12/28 06:22:27;;;;;;;7.42;0.88;;;;;;;;;;5242774;28;20029;-78
2023/12/28 06:24:58;;;;;;;6.30;0.73;;;;;;;;;;5242688;28;20072;-78
2023/12/28 06:27:29;;;;;;;9.68;1.13;;;;;;;;;;5242664;28;20033;-79
2023/12/28 06:30:00;;;;;;;7.95;0.95;;;;;;;;;;5242109;28;20077;-78
2023/12/28 06:32:31;;;;;;;9.40;0.70;;;;;;;;;;5242981;28;20499;-79
2023/12/28 06:35:03;;;;;;;7.30;0.80;;;;;;;;;;5242714;28;20037;-78
2023/12/28 06:37:34;;;;;;;6.10;0.60;;;;;;;;;;5241870;28;20017;-80
2023/12/28 06:40:05;;;;;;;5.13;0.60;;;;;;;;;;5242926;28;20029;-77
2023/12/28 06:42:37;;;;;;;8.27;0.85;;;;;;;;;;5242562;28;20028;-77
2023/12/28 06:45:08;;;;;;;9.48;1.10;;;;;;;;;;5241896;28;20060;-77
2023/12/28 06:47:39;;;;;;;4.32;0.68;;;;;;;;;;5242401;28;20045;-78
2023/12/28 06:50:10;;;;;;;6.15;0.60;;;;;;;;;;5242264;28;20028;-78
2023/12/28 06:52:42;;;;;;;11.82;0.90;;;;;;;;;;5241807;28;20476;-77
2023/12/28 06:55:13;;;;;;;7.40;0.80;;;;;;;;;;5242729;28;20030;-79
2023/12/28 06:57:44;;;;;;;4.75;0.52;;;;;;;;;;5242340;28;20056;-79
2023/12/28 07:00:15;;;;;;;11.32;1.02;;;;;;;;;;5241532;28;20053;-78
2023/12/28 07:02:46;;;;;;;7.50;0.70;;;;;;;;;;5242331;28;20494;-78
2023/12/28 07:05:18;;;;;;;7.07;0.50;;;;;;;;;;5241290;28;20466;-76
2023/12/28 07:07:49;;;;;;;6.97;0.60;;;;;;;;;;5241961;28;20433;-73
2023/12/28 07:10:21;;;;;;;9.52;1.08;;;;;;;;;;5240877;28;20420;-79
2023/12/28 07:12:52;;;;;;;5.10;0.75;;;;;;;;;;5240993;28;20021;-77
2023/12/28 07:15:23;;;;;;;6.88;0.85;;;;;;;;;;5241244;28;20045;-78
2023/12/28 07:17:54;;;;;;;6.47;0.70;;;;;;;;;;5241960;28;20464;-77
2023/12/28 07:20:25;;;;;;;7.50;0.63;;;;;;;;;;5240632;28;20033;-73
2023/12/28 07:22:56;;;;;;;9.77;0.73;;;;;;;;;;5239189;28;20014;-78
2023/12/28 07:25:28;;;;;;;7.22;0.82;;;;;;;;;;5258322;28;20063;-78
2023/12/28 07:27:59;;;;;;;9.52;0.90;;;;;;;;;;5261251;28;20041;-78
2023/12/28 07:30:30;;;;;;;8.77;0.80;;;;;;;;;;5262406;28;20210;-78
2023/12/28 07:33:01;;;;;;;11.35;1.23;;;;;;;;;;5261623;28;20025;-78
2023/12/28 07:35:33;;;;;;;8.35;0.80;;;;;;;;;;5258936;28;20016;-74
2023/12/28 07:38:04;;;;;;;4.97;0.50;;;;;;;;;;5261249;28;20059;-74
2023/12/28 07:40:35;;;;;;;6.80;0.63;;;;;;;;;;5260093;28;20039;-74
2023/12/28 07:43:06;;;;;;;6.70;0.88;;;;;;;;;;5261986;28;20017;-74
2023/12/28 07:45:38;;;;;;;10.25;0.98;;;;;;;;;;5261998;28;20017;-73
2023/12/28 07:48:09;;;;;;;5.47;0.80;;;;;;;;;;5260870;28;20029;-73
2023/12/28 07:50:41;;;;;;;7.88;0.88;;;;;;;;;;5261983;28;20021;-73
2023/12/28 07:53:12;;;;;;;8.18;0.80;;;;;;;;;;5261936;28;20383;-74
2023/12/28 07:55:43;;;;;;;8.13;0.93;;;;;;;;;;5261239;28;20033;-74
2023/12/28 07:58:15;;;;;;;8.18;0.70;;;;;;;;;;5261969;28;20020;-74
2023/12/28 08:00:46;;;;;;;5.88;0.95;;;;;;;;;;5260420;28;20025;-74
2023/12/28 08:03:17;;;;;;;8.27;1.02;;;;;;;;;;5260780;28;20017;-74
2023/12/28 08:05:48;;;;;;;7.30;0.90;;;;;;;;;;5261975;28;20017;-80
2023/12/28 08:08:20;;;;;;;10.75;1.40;;;;;;;;;;5261426;28;20029;-81
2023/12/28 08:10:51;;;;;;;8.00;0.90;;;;;;;;;;5261742;28;20098;-79
2023/12/28 08:13:22;;;;;;;7.20;0.95;;;;;;;;;;5261073;28;20021;-79
2023/12/28 08:15:53;;;;;;;7.60;0.80;;;;;;;;;;5260654;28;20102;-80
2023/12/28 08:18:24;;;;;;;9.90;0.90;;;;;;;;;;5260851;28;20519;-79
2023/12/28 08:20:56;;;;;;;8.05;1.25;;;;;;;;;;5261857;28;20013;-79
2023/12/28 08:23:27;;;;;;;9.70;1.10;;;;;;;;;;5261083;28;20123;-78
2023/12/28 08:25:58;;;;;;;7.90;1.00;;;;;;;;;;5263791;28;20185;-79
2023/12/28 08:28:30;;;;;;;7.53;0.60;;;;;;;;;;5261132;28;20053;-78
2023/12/28 08:31:01;;;;;;;7.28;0.60;;;;;;;;;;5260504;28;20480;-79
2023/12/28 08:33:32;;;;;;;8.85;1.23;;;;;;;;;;5261365;28;20048;-78
2023/12/28 08:36:04;;;;;;;12.60;1.67;;;;;;;;;;5260805;28;20017;-77
2023/12/28 08:38:35;;;;;;;9.68;1.27;;;;;;;;;;5260090;28;20460;-77
2023/12/28 08:41:08;;;;;;;7.93;1.23;;;;;;;;;;5260960;28;20032;-77
2023/12/28 08:43:40;;;;;;;6.75;0.75;;;;;;;;;;5260048;28;20025;-78
2023/12/28 08:46:11;;;;;;;7.63;0.82;;;;;;;;;;5260843;28;20035;-79
2023/12/28 08:48:42;;;;;;;9.98;0.90;;;;;;;;;;5260829;28;20493;-77
2023/12/28 08:51:14;;;;;;;6.43;0.95;;;;;;;;;;5259857;28;20025;-77
2023/12/28 08:53:46;;;;;;;7.93;0.82;;;;;;;;;;5260723;28;20488;-78
2023/12/28 08:56:20;;;;;;;9.98;0.77;;;;;;;;;;5261116;28;20027;-78
2023/12/28 08:58:52;;;;;;;7.20;1.02;;;;;;;;;;5260179;28;20020;-78
2023/12/28 09:01:25;;;;;;;7.57;0.93;;;;;;;;;;5260715;28;20415;-78
2023/12/28 09:03:56;;;;;;;8.80;1.13;;;;;;;;;;5261190;28;20021;-78
2023/12/28 09:06:27;;;;;;;11.90;0.70;;;;;;;;;;5259628;28;20033;-77
2023/12/28 09:08:58;;;;;;;10.50;0.90;;;;;;;;;;5260487;28;20112;-78
2023/12/28 09:11:29;;;;;;;11.02;1.35;;;;;;;;;;5260649;28;20477;-79
2023/12/28 09:14:01;;;;;;;12.15;1.13;;;;;;;;;;5259755;28;20395;-78
2023/12/28 09:16:32;;;;;;;10.70;1.13;;;;;;;;;;5260751;28;20103;-79
2023/12/28 09:19:03;;;;;;;10.13;1.00;;;;;;;;;;5259831;28;20021;-81
2023/12/28 09:21:34;;;;;;;9.80;1.20;;;;;;;;;;5260491;28;20055;-78
2023/12/28 09:24:05;;;;;;;7.95;0.75;;;;;;;;;;5260181;28;20023;-78
2023/12/28 09:26:37;;;;;;;9.90;1.05;;;;;;;;;;5259400;28;20370;-78
2023/12/28 09:29:08;;;;;;;8.27;0.70;;;;;;;;;;5260264;28;20132;-78
2023/12/28 09:31:39;;;;;;;10.30;0.77;;;;;;;;;;5260852;28;20017;-78
2023/12/28 09:34:10;;;;;;;11.43;1.10;;;;;;;;;;5261614;28;20100;-79
2023/12/28 09:36:41;;;;;;;10.23;0.93;;;;;;;;;;5264709;28;20028;-78
2023/12/28 09:39:13;;;;;;;9.57;0.63;;;;;;;;;;5264727;28;20013;-78
2023/12/28 09:41:48;;;;;;;10.68;1.13;;;;;;;;;;5263929;28;20260;-78
2023/12/28 09:44:20;;;;;;;8.63;0.90;;;;;;;;;;5264379;28;20020;-79
2023/12/28 09:46:53;;;;;;;6.20;0.77;;;;;;;;;;5263818;28;20383;-79
2023/12/28 09:49:24;;;;;;;11.25;0.90;;;;;;;;;;5264171;28;20490;-79
2023/12/28 09:51:55;;;;;;;7.68;0.73;;;;;;;;;;5264818;28;20025;-79
2023/12/28 09:54:27;;;;;;;6.05;0.60;;;;;;;;;;5263495;28;20017;-77
2023/12/28 09:56:58;;;;;;;9.80;1.25;;;;;;;;;;5264325;28;20037;-74
2023/12/28 09:59:31;;;;;;;9.35;0.90;;;;;;;;;;5264046;28;20055;-79
2023/12/28 10:02:03;;;;;;;9.32;0.88;;;;;;;;;;5263710;28;20036;-79
2023/12/28 10:04:34;;;;;;;8.80;0.80;;;;;;;;;;5262938;28;20020;-79
2023/12/28 10:07:05;;;;;;;7.65;0.82;;;;;;;;;;5264110;28;20041;-80
2023/12/28 10:09:37;;;;;;;11.00;0.80;;;;;;;;;;5263379;28;20075;-80
2023/12/28 10:12:09;;;;;;;9.35;1.10;;;;;;;;;;5263643;28;20025;-80
2023/12/28 10:14:40;;;;;;;7.15;1.25;;;;;;;;;;5264415;28;20028;-80
2023/12/28 10:17:11;;;;;;;6.93;0.70;;;;;;;;;;5266269;28;20025;-79
2023/12/28 10:19:47;;;;;;;9.90;0.80;;;;;;;;;;5268178;28;20033;-80
2023/12/28 10:22:18;;;;;;;10.65;0.80;;;;;;;;;;5264538;28;20028;-80
2023/12/28 10:24:50;;;;;;;7.40;1.00;;;;;;;;;;5264011;28;20024;-80
2023/12/28 10:27:21;;;;;;;10.88;1.10;;;;;;;;;;5263828;28;20040;-80
2023/12/28 10:29:56;;;;;;;10.80;0.85;;;;;;;;;;5263316;28;20129;-80
2023/12/28 10:32:27;;;;;;;12.80;1.13;;;;;;;;;;5263251;28;20017;-80
2023/12/28 10:34:58;;;;;;;9.10;0.70;;;;;;;;;;5263726;28;20074;-81
2023/12/28 10:37:31;;;;;;;8.07;1.85;;;;;;;;;;5263064;28;20025;-81
2023/12/28 10:40:06;;;;;;;6.60;0.70;;;;;;;;;;5263698;28;20017;-80
2023/12/28 10:42:42;;;;;;;8.27;0.70;;;;;;;;;;5263490;28;20491;-80
2023/12/28 10:45:14;;;;;;;10.63;0.90;;;;;;;;;;5261639;28;20017;-80
2023/12/28 10:47:47;;;;;;;8.13;0.75;;;;;;;;;;5263260;28;20029;-80
2023/12/28 10:50:18;;;;;;;8.82;1.15;;;;;;;;;;5262808;28;20037;-80
2023/12/28 10:52:53;;;;;;;5.90;0.93;;;;;;;;;;5263285;28;20032;-79
2023/12/28 10:55:34;;;;;;;10.60;1.20;;;;;;;;;;5262818;28;20017;-80
2023/12/28 10:58:08;;;;;;;8.30;0.75;;;;;;;;;;5262234;28;20353;-79
2023/12/28 11:00:46;;;;;;;9.35;0.80;;;;;;;;;;5262946;28;20021;-79
2023/12/28 11:03:22;;;;;;;7.75;0.93;;;;;;;;;;5263024;28;20074;-80
2023/12/28 11:05:55;;;;;;;8.98;0.82;;;;;;;;;;5262942;28;20116;-80
2023/12/28 11:08:26;;;;;;;11.35;0.98;;;;;;;;;;5262355;28;20361;-80
2023/12/28 11:11:01;;;;;;;10.77;1.45;;;;;;;;;;5263052;28;20032;-80
2023/12/28 11:13:33;;;;;;;10.70;1.08;;;;;;;;;;5261916;28;20035;-79
2023/12/28 11:16:05;;;;;;;7.55;0.70;;;;;;;;;;5262854;28;20021;-80
2023/12/28 11:18:36;;;;;;;12.98;1.58;;;;;;;;;;5261870;28;20372;-80
2023/12/28 11:21:07;;;;;;;9.20;1.10;;;;;;;;;;5262553;28;20086;-80
2023/12/28 11:23:39;;;;;;;8.43;1.00;;;;;;;;;;5262646;28;20029;-78
2023/12/28 11:26:17;;;;;;;9.23;0.90;;;;;;;;;;5262215;28;20599;-79
2023/12/28 11:28:48;;;;;;;8.97;1.00;;;;;;;;;;5262468;28;20049;-79
2023/12/28 11:31:19;;;;;;;10.80;0.95;;;;;;;;;;5262538;28;20769;-77
2023/12/28 11:33:54;;;;;;;9.50;1.10;;;;;;;;;;5262050;28;20021;-77
2023/12/28 11:36:26;;;;;;;6.00;1.15;;;;;;;;;;5262111;28;20021;-80
2023/12/28 11:39:00;;;;;;;12.07;1.25;;;;;;;;;;5262484;28;20372;-79
2023/12/28 11:41:33;;;;;;;8.68;1.15;;;;;;;;;;5261733;28;20024;-80
2023/12/28 11:44:04;;;;;;;12.02;1.17;;;;;;;;;;5262411;28;20016;-79
2023/12/28 11:46:38;;;;;;;10.02;0.98;;;;;;;;;;5261572;28;20020;-79
2023/12/28 11:49:10;;;;;;;12.95;1.73;;;;;;;;;;5262133;28;20392;-80
2023/12/28 11:51:41;;;;;;;11.25;1.23;;;;;;;;;;5262397;28;20040;-73
2023/12/28 11:54:12;;;;;;;12.00;1.05;;;;;;;;;;5261379;28;20096;-82
2023/12/28 11:56:43;;;;;;;12.20;1.35;;;;;;;;;;5261977;28;20063;-80
2023/12/28 11:59:15;;;;;;;8.75;0.80;;;;;;;;;;5262354;28;20017;-80
2023/12/28 12:01:52;;;;;;;13.02;1.13;;;;;;;;;;5261484;28;20151;-80
2023/12/28 12:04:23;;;;;;;9.65;1.13;;;;;;;;;;5261277;28;20107;-80
2023/12/28 12:06:54;;;;;;;11.68;0.95;;;;;;;;;;5262133;28;20142;-80
2023/12/28 12:09:26;;;;;;;7.90;0.95;;;;;;;;;;5261043;28;20017;-80
2023/12/28 12:11:57;;;;;;;9.18;0.85;;;;;;;;;;5262715;28;20036;-81
2023/12/28 12:14:29;;;;;;;9.32;1.17;;;;;;;;;;5266002;28;20024;-80
2023/12/28 12:17:00;;;;;;;6.88;0.80;;;;;;;;;;5267642;28;20518;-80
2023/12/28 12:19:32;;;;;;;14.07;2.13;;;;;;;;;;5263140;28;20021;-81
2023/12/28 12:22:03;;;;;;;12.60;1.15;;;;;;;;;;5261674;28;20480;-81
2023/12/28 12:24:35;;;;;;;11.55;0.98;;;;;;;;;;5261779;28;20031;-81
2023/12/28 12:27:06;;;;;;;10.10;1.15;;;;;;;;;;5261524;28;20055;-80
2023/12/28 12:29:38;;;;;;;7.53;1.08;;;;;;;;;;5260979;28;20089;-80
2023/12/28 12:32:09;;;;;;;12.93;1.55;;;;;;;;;;5261776;28;20087;-82
2023/12/28 12:34:40;;;;;;;7.20;0.88;;;;;;;;;;5261831;28;20021;-82
2023/12/28 12:37:12;;;;;;;7.13;1.00;;;;;;;;;;5260926;28;20025;-82
2023/12/28 12:39:43;;;;;;;12.90;1.52;;;;;;;;;;5261949;28;20082;-82
2023/12/28 12:42:15;;;;;;;8.45;0.95;;;;;;;;;;5261458;28;20020;-82
2023/12/28 12:44:46;;;;;;;10.65;1.40;;;;;;;;;;5260468;28;20021;-81
2023/12/28 12:47:17;;;;;;;10.85;1.23;;;;;;;;;;5261329;28;20036;-80
2023/12/28 12:49:51;;;;;;;12.43;1.67;;;;;;;;;;5260904;28;20016;-81
2023/12/28 12:52:25;;;;;;;9.90;1.35;;;;;;;;;;5260825;28;20116;-81
2023/12/28 12:54:57;;;;;;;12.23;1.13;;;;;;;;;;5261438;28;20371;-79
2023/12/28 12:57:28;;;;;;;15.32;1.63;;;;;;;;;;5260145;28;20024;-80
2023/12/28 13:00:01;;;;;;;13.07;1.30;;;;;;;;;;5261160;28;20016;-79
2023/12/28 13:02:33;;;;;;;9.10;0.88;;;;;;;;;;5260991;28;20564;-80
2023/12/28 13:05:05;;;;;;;9.70;0.82;;;;;;;;;;5260346;28;20017;-81
2023/12/28 13:07:36;;;;;;;7.78;1.20;;;;;;;;;;5261009;28;20025;-82
2023/12/28 13:10:07;;;;;;;12.90;1.77;;;;;;;;;;5260755;28;20025;-81
2023/12/28 13:12:38;;;;;;;8.65;1.38;;;;;;;;;;5260414;28;20493;-80
2023/12/28 13:15:10;;;;;;;7.20;1.20;;;;;;;;;;5260954;28;20028;-81
2023/12/28 13:17:42;;;;;;;10.25;1.70;;;;;;;;;;5261078;28;20025;-82
2023/12/28 13:20:14;;;;;;;8.20;1.00;;;;;;;;;;5260220;28;20051;-81
2023/12/28 13:22:45;;;;;;;9.07;0.82;;;;;;;;;;5261103;28;20107;-82
2023/12/28 13:25:16;;;;;;;9.70;1.05;;;;;;;;;;5260024;28;20033;-81
2023/12/28 13:27:47;;;;;;;10.70;1.23;;;;;;;;;;5260580;28;20464;-81
2023/12/28 13:30:18;;;;;;;9.05;0.85;;;;;;;;;;5260724;28;20134;-81
2023/12/28 13:32:50;;;;;;;11.40;1.10;;;;;;;;;;5260771;28;20029;-82
2023/12/28 13:35:21;;;;;;;11.00;1.50;;;;;;;;;;5260741;28;20079;-81
2023/12/28 13:37:52;;;;;;;12.38;1.60;;;;;;;;;;5261139;28;20057;-80
2023/12/28 13:40:24;;;;;;;8.95;1.10;;;;;;;;;;5259748;28;20479;-82
2023/12/28 13:42:55;;;;;;;14.45;1.63;;;;;;;;;;5261429;28;20100;-82
2023/12/28 13:45:26;;;;;;;11.77;1.50;;;;;;;;;;5260606;28;20071;-82
2023/12/28 13:47:57;;;;;;;12.80;1.33;;;;;;;;;;5259941;28;20035;-82
2023/12/28 13:50:29;;;;;;;11.57;1.50;;;;;;;;;;5260658;28;20499;-82
2023/12/28 13:53:00;;;;;;;7.07;1.13;;;;;;;;;;5259858;28;20380;-82
2023/12/28 13:55:33;;;;;;;12.50;1.02;;;;;;;;;;5261158;28;20113;-81
2023/12/28 13:58:04;;;;;;;9.63;1.63;;;;;;;;;;5260667;28;20020;-82
2023/12/28 14:00:35;;;;;;;9.27;1.42;;;;;;;;;;5260329;28;20021;-82
2023/12/28 14:03:06;;;;;;;8.75;1.15;;;;;;;;;;5260759;28;20021;-81
2023/12/28 14:05:38;;;;;;;12.40;1.00;;;;;;;;;;5260777;28;20479;-81
2023/12/28 14:08:09;;;;;;;12.25;1.38;;;;;;;;;;5262572;28;20033;-80
2023/12/28 14:10:40;;;;;;;7.72;1.05;;;;;;;;;;5267584;28;20017;-80
2023/12/28 14:13:11;;;;;;;10.27;1.42;;;;;;;;;;5266423;28;20028;-81
2023/12/28 14:15:43;;;;;;;11.75;1.23;;;;;;;;;;5261759;28;20017;-81
2023/12/28 14:18:14;;;;;;;10.98;1.35;;;;;;;;;;5260801;28;20029;-81
2023/12/28 14:20:45;;;;;;;8.57;1.25;;;;;;;;;;5263323;28;20021;-81
2023/12/28 14:23:20;;;;;;;9.68;1.13;;;;;;;;;;5263530;28;20028;-82
2023/12/28 14:25:53;;;;;;;12.90;1.40;;;;;;;;;;5264389;28;20154;-81
2023/12/28 14:28:26;;;;;;;8.07;1.00;;;;;;;;;;5263166;28;20060;-81
2023/12/28 14:30:57;;;;;;;9.32;1.00;;;;;;;;;;5264370;28;20016;-81
2023/12/28 14:33:29;;;;;;;9.48;1.05;;;;;;;;;;5264407;28;20021;-81
2023/12/28 14:36:01;;;;;;;8.43;1.05;;;;;;;;;;5263855;28;20020;-79
2023/12/28 14:38:32;;;;;;;9.93;0.80;;;;;;;;;;5264649;28;20028;-81
2023/12/28 14:41:03;;;;;;;7.75;1.15;;;;;;;;;;5263872;28;20017;-81
2023/12/28 14:43:35;;;;;;;9.30;1.35;;;;;;;;;;5262966;28;20480;-81
2023/12/28 14:46:06;;;;;;;8.50;0.90;;;;;;;;;;5263957;28;20376;-81
2023/12/28 14:48:37;;;;;;;9.65;1.02;;;;;;;;;;5263983;28;20490;-80
2023/12/28 14:51:08;;;;;;;8.35;1.25;;;;;;;;;;5265351;28;20017;-80
2023/12/28 14:53:39;;;;;;;8.00;0.95;;;;;;;;;;5264607;28;20028;-82
2023/12/28 14:56:11;;;;;;;8.27;0.70;;;;;;;;;;5264518;28;20063;-82
2023/12/28 14:58:46;;;;;;;9.57;0.80;;;;;;;;;;5262961;28;20017;-79
2023/12/28 15:01:20;;;;;;;9.05;0.90;;;;;;;;;;5262705;28;20024;-78
2023/12/28 15:03:51;;;;;;;6.75;0.65;;;;;;;;;;5262576;28;20044;-82
2023/12/28 15:06:22;;;;;;;8.25;0.70;;;;;;;;;;5263997;28;20044;-80